Terminal Aerodrome Forecast
Issued by NWS Portland, OR

Home | Current Version | Previous Version | Text Only | Print | Product List | Glossary On
Versions: 1 2 3 4 5 6 7 8 9 10 11 12 13 14 15 16 17 18 19 20 21 22 23 24 25 26 27 28 29 30 31 32 33 34 35 36 37 38 39 40 41 42 43 44 45 46 47 48 49 50
418
FTUS46 KPQR 250029 AAA
TAFPDX
TAF AMD
KPDX 250029Z 2500/2524 12006KT P6SM SCT025 BKN045 BKN060
     FM250500 12004KT P6SM SCT040 BKN060
     FM250800 00000KT 6SM BCFG SCT001 SCT045
     FM251200 00000KT 1/4SM FG VV002
     FM251800 29005KT P6SM FEW040=

USA.gov is the U.S. government's official web portal to all federal, state and local government web resources and services.